Daytona Beach International Airport
KDAB : rendu visible

Aérodrome :











RETROUVEZ-NOUS SUR...

 
LOGIN :

S'inscrire | Disclaimer

   EN    FR    IT 

 









Légende :    VFR   VFR Marginal   IFR   IFR Intensif   IFR Très Intensif
Visi : 
Plafond : 
>= 8 km
>= 3000ft
5 à 8 km
1000 à 3000 ft
1500m à 5 km
500 à 1000 ft
800 à 1500m
200 à 500 ft
< 800m
< 200 ft
Symboles :   Orages  Brouillard  Fortes neiges  Fortes précipitations  Vent > 20 kt






- Altitude de l'aérodrome : 34 ft
- Code IATA : DAB


KDAB - Daytona Beach International

DERNIER METAR :
  • 210153Z 33008KT 10SM FEW025 09/04 A3024 RMK AO2 SLP238 T00890044

METARs EXPIRÉS :
  • 210053Z 33008KT 10SM FEW025 09/06 A3023 RMK AO2 SLP237 T00940056
  • 202353Z 35008KT 10SM SCT015 SCT025 11/07 A3022 RMK AO2 SLP233 T01060067 10161 20106 53017

TAF KDAB
Valide du 21 à 02h jusqu'au 22 à 00h UTC


210158Z 2102/2124 33008KT P6SM SCT025
FM211300 34014G22KT P6SM BKN035
FM211800 34018G27KT P6SM SCT035



MET'MAP, la Météo Aéronautique d'un coup d'oeil ! - Copyright ORBIFLY Décembre 2007 - Disclaimer

ORBIFLY MET'MAP TEAM :

Programmation & Développement : Alexandra Zaïnal
Sur une idée originale de : Baudouin d'Aumeries
Assistance à la programmation : Marc-Olivier Méhu
Soutien technique & logistique : Manuel Goepfert

Contact : metmap@orbifly.com




SOURCES & CREDITS :

   NOAA       Earth
Advisory